Mililani, HI (96789)

7:07 AM HST on February 27, 2015 (GMT -1000)
Mililani Mauka | Change Station
CLOSE
Current Station
Personal Weather Station
Location: Mililani, HI
Elevation: 807 ft
Nearby Weather Stations

Elev 807 ft 21.47 °N, 158.01 °W | Updated 9 minutes ago

Clear
Clear
66.0 °F
Feels Like 66.0 °F
N
3.2
Wind Variable Wind from NNE

Today
High -- | Low -- °F
--% Chance of Precip.
Yesterday
High -- | Low -- °F
Precip. -- in
6:54 AM 6:35 PM
Waxing Gibbous, 70% visible
Pressure 29.94 in
Visibility 10.0 miles
Clouds Clear
Dew Point 63 °F
Humidity 91%
Rainfall 0.00 in
Snow Depth Not available.
UV 0 out of 12
Pollen Not available.
Air Quality Not available.
Flu Activity Not available.
METAR PHHI 271658Z AUTO 34003KT 10SM CLR 20/19 A2996 RMK AO2 SLP137 T01950185 $

More Conditions Fewer Conditions

Pressure 29.94 in
Visibility 10.0 miles
Clouds Clear
Dew Point 63 °F
Humidity 91%
Rainfall 0.00 in
Snow Depth Not available.
UV 0 out of 12
Pollen Not available.
Air Quality Not available.
Flu Activity Not available.
METAR PHHI 271658Z AUTO 34003KT 10SM CLR 20/19 A2996 RMK AO2 SLP137 T01950185 $

More Conditions Fewer Conditions

10-Day Weather Forecast

Almanac

Astronomy

Feb. 27, 2015 Rise Set
Actual Time
Civil Twilight
Nautical Twilight
Astronomical Twilight
Moon
Length of Visible Light
Length of Day
Tomorrow will be .
, % of the Moon is Illuminated

Today's Extremes

State Highs State Lows

Community

WunderPhotos

Upload Photos

1,800,741 photos uploaded!

WunderBlogs® & News

Nearby

Air Quality

  Air Quality AQ Index Pollutant
Not available.

Snow Depth

Station Depth Elevation

Earthquake Activity

City Distance Mag. Time & Date
Minimum magnitude displayed is 2.5.

Coastal Water Temperatures

Place Temperature

Nearby Weather Stations